Time;durP1;ratioP1;P1;durP2;ratioP2;P2;SDS_P1;SDS_P2;PMS_P1;PMS_P2;Temp;Humidity;BMP_temperature;BMP_pressure;BME280_temperature;BME280_humidity;BME280_pressure;Samples;Min_cycle;Max_cycle;Signal;HPM_P1;HPM_P2
2024/01/18 00:00:39;;;;;;;1.38;1.38;;;;;;;15.33;23.58;98048.19;7396913;19;20010;-89
2024/01/18 00:03:05;;;;;;;5.75;5.07;;;;;;;14.55;24.38;98063.47;7396132;19;20010;-89
2024/01/18 00:05:31;;;;;;;5.30;1.55;;;;;;;14.71;24.22;98062.31;7396981;19;20050;-89
2024/01/18 00:07:57;;;;;;;2.53;2.42;;;;;;;15.11;24.03;98058.72;7399528;19;20010;-86
2024/01/18 00:10:26;;;;;;;3.22;2.85;;;;;;;14.87;24.30;98055.53;7400363;19;20353;-89
2024/01/18 00:12:53;;;;;;;2.53;2.33;;;;;;;14.42;24.38;98047.50;7394735;19;20396;-88
2024/01/18 00:15:19;;;;;;;2.67;2.47;;;;;;;14.59;24.29;98059.03;7395503;19;20022;-89
2024/01/18 00:17:45;;;;;;;1.95;1.85;;;;;;;15.23;23.90;98075.22;7396583;19;20018;-88
2024/01/18 00:20:11;;;;;;;10.15;3.60;;;;;;;15.35;23.43;98070.84;7398947;19;20011;-87
2024/01/18 00:22:37;;;;;;;20.27;2.72;;;;;;;14.83;23.55;98078.31;7398137;19;20049;-88
2024/01/18 00:25:04;;;;;;;3.35;3.15;;;;;;;14.79;23.76;98082.75;7396522;19;20015;-87
2024/01/18 00:27:30;;;;;;;3.90;2.60;;;;;;;14.00;24.46;98099.06;7396160;19;20022;-88
2024/01/18 00:29:57;;;;;;;9.82;3.92;;;;;;;13.65;24.77;98092.66;7397196;19;20395;-87
2024/01/18 00:32:26;;;;;;;2.95;2.20;;;;;;;15.61;23.07;98081.88;7395487;19;20014;-88
2024/01/18 00:34:52;;;;;;;3.22;2.72;;;;;;;15.96;23.02;98083.91;7393743;19;20011;-88
2024/01/18 00:37:18;;;;;;;1.88;1.77;;;;;;;16.14;22.40;98088.47;7395831;19;20018;-88
2024/01/18 00:39:44;;;;;;;2.17;2.08;;;;;;;15.01;23.54;98093.38;7394535;19;20026;-88
2024/01/18 00:42:10;;;;;;;3.30;2.20;;;;;;;14.51;23.83;98096.69;7392102;19;20018;-86
2024/01/18 00:44:36;;;;;;;5.25;4.80;;;;;;;15.59;23.20;98101.31;7394750;19;20043;-87
2024/01/18 00:47:03;;;;;;;1.27;1.27;;;;;;;14.29;24.23;98115.47;7393516;19;20456;-88
2024/01/18 00:49:29;;;;;;;1.60;1.50;;;;;;;14.36;24.31;98116.88;7395603;19;20031;-88
2024/01/18 00:51:55;;;;;;;1.38;1.35;;;;;;;14.18;24.23;98118.53;7394600;19;20028;-88
2024/01/18 00:54:21;;;;;;;16.30;2.70;;;;;;;14.19;24.37;98111.63;7393500;19;20376;-88
2024/01/18 00:56:47;;;;;;;1.52;1.42;;;;;;;15.22;23.43;98113.00;7394028;19;20010;-88
2024/01/18 00:59:13;;;;;;;4.70;2.33;;;;;;;14.66;23.61;98119.97;7392149;19;20484;-88
2024/01/18 01:01:39;;;;;;;1.25;1.25;;;;;;;14.71;23.71;98121.91;7390284;19;20015;-88
2024/01/18 01:04:05;;;;;;;1.75;1.65;;;;;;;14.89;23.80;98126.56;7389695;19;20018;-88
2024/01/18 01:06:32;;;;;;;5.00;2.30;;;;;;;15.00;23.88;98126.28;7392940;19;20368;-88
2024/01/18 01:08:58;;;;;;;2.55;2.08;;;;;;;15.18;23.62;98125.31;7395698;19;20018;-88
2024/01/18 01:11:24;;;;;;;1.52;1.33;;;;;;;15.16;23.36;98121.53;7393539;19;20070;-88
2024/01/18 01:13:50;;;;;;;0.77;0.77;;;;;;;15.34;22.97;98126.19;7389828;19;20025;-88
2024/01/18 01:16:16;;;;;;;1.80;1.70;;;;;;;14.23;23.93;98150.47;7391059;19;20018;-88
2024/01/18 01:18:42;;;;;;;2.15;2.05;;;;;;;13.79;24.44;98154.19;7391728;19;20015;-88
2024/01/18 01:21:08;;;;;;;4.28;2.03;;;;;;;13.47;24.89;98157.84;7392696;19;20010;-87
2024/01/18 01:23:40;;;;;;;1.85;1.55;;;;;;;13.73;24.26;98159.16;7390500;19;20429;-87
2024/01/18 01:26:08;;;;;;;2.50;2.38;;;;;;;13.45;24.75;98152.03;7391567;19;20483;-87
2024/01/18 01:28:34;;;;;;;2.10;1.45;;;;;;;13.12;24.63;98147.06;7391991;19;20014;-88
2024/01/18 01:31:00;;;;;;;1.38;0.60;;;;;;;13.79;24.52;98146.56;7392026;19;20011;-88
2024/01/18 01:33:28;;;;;;;6.50;2.17;;;;;;;14.06;24.04;98150.06;7389306;19;20019;-87
2024/01/18 01:35:54;;;;;;;2.80;2.22;;;;;;;14.13;24.21;98157.81;7387764;19;20381;-88
2024/01/18 01:38:20;;;;;;;1.27;1.27;;;;;;;14.14;24.32;98157.28;7395028;19;20014;-87
2024/01/18 01:40:46;;;;;;;4.22;2.67;;;;;;;14.44;24.05;98163.25;7394236;19;20396;-87
2024/01/18 01:43:13;;;;;;;1.38;0.70;;;;;;;14.49;24.16;98172.84;7390253;19;20460;-87
2024/01/18 01:45:39;;;;;;;8.07;2.72;;;;;;;14.37;24.08;98169.56;7391164;19;20018;-87
2024/01/18 01:48:07;;;;;;;3.80;2.88;;;;;;;14.53;24.10;98167.66;7391489;19;20015;-88
2024/01/18 01:50:33;;;;;;;1.85;1.73;;;;;;;14.34;24.29;98172.66;7392126;19;20345;-88
2024/01/18 01:53:00;;;;;;;1.30;1.30;;;;;;;14.19;24.45;98155.66;7392737;19;20011;-88
2024/01/18 01:55:26;;;;;;;0.68;0.68;;;;;;;14.71;24.08;98168.78;7391037;19;20364;-88
2024/01/18 01:57:53;;;;;;;13.02;3.63;;;;;;;15.02;23.75;98168.56;7391003;19;20059;-88
2024/01/18 02:00:21;;;;;;;2.42;1.92;;;;;;;14.35;24.28;98182.59;7390498;19;20029;-88
2024/01/18 02:02:49;;;;;;;1.58;1.48;;;;;;;14.56;23.93;98186.19;7393426;19;20074;-87
2024/01/18 02:05:15;;;;;;;2.05;1.13;;;;;;;13.44;24.82;98183.34;7389670;19;20021;-87
2024/01/18 02:07:42;;;;;;;1.98;1.60;;;;;;;14.14;24.50;98178.94;7391410;19;20011;-87
2024/01/18 02:10:09;;;;;;;6.20;1.90;;;;;;;15.65;23.29;98177.69;7389947;19;20015;-87
2024/01/18 02:12:36;;;;;;;7.95;1.73;;;;;;;16.01;22.71;98170.03;7388034;19;20029;-87
2024/01/18 02:15:03;;;;;;;5.32;4.95;;;;;;;16.02;23.01;98191.22;7397206;19;20023;-87
2024/01/18 02:17:29;;;;;;;3.42;3.15;;;;;;;15.78;23.10;98186.75;7398668;19;20010;-87
2024/01/18 02:19:56;;;;;;;1.60;1.50;;;;;;;17.38;22.06;98180.38;7397457;19;20003;-88
2024/01/18 02:22:26;;;;;;;0.80;0.80;;;;;;;17.40;21.84;98181.31;7395997;19;20014;-87
2024/01/18 02:25:06;;;;;;;1.98;1.88;;;;;;;16.96;22.19;98193.25;7399661;19;20029;-87
2024/01/18 02:27:32;;;;;;;2.47;2.38;;;;;;;16.34;22.61;98208.41;7396790;19;20022;-85
2024/01/18 02:29:58;;;;;;;14.45;2.10;;;;;;;15.85;22.74;98207.78;7397164;19;20018;-88
2024/01/18 02:32:24;;;;;;;0.40;0.40;;;;;;;15.86;22.60;98198.03;7397557;19;20022;-88
2024/01/18 02:34:53;;;;;;;0.82;0.82;;;;;;;15.97;22.52;98203.34;7396741;19;20014;-87
2024/01/18 02:37:20;;;;;;;1.08;1.05;;;;;;;15.86;22.72;98200.84;7400232;19;20041;-86
2024/01/18 02:39:48;;;;;;;1.02;1.02;;;;;;;15.24;23.14;98205.75;7398545;19;20015;-87
2024/01/18 02:42:14;;;;;;;17.83;2.63;;;;;;;15.46;23.06;98216.44;7397503;19;20018;-87
2024/01/18 02:44:44;;;;;;;1.00;1.00;;;;;;;15.56;23.32;98214.66;7401155;19;20017;-87
2024/01/18 02:47:12;;;;;;;1.70;1.60;;;;;;;15.98;22.76;98213.28;7397756;19;20036;-87
2024/01/18 02:49:38;;;;;;;0.68;0.68;;;;;;;15.77;22.72;98212.56;7398330;19;20631;-87
2024/01/18 02:52:05;;;;;;;6.50;1.52;;;;;;;17.17;21.75;98207.94;7397467;19;20460;-86
2024/01/18 02:54:31;;;;;;;2.13;1.98;;;;;;;16.19;22.46;98225.19;7398638;19;20019;-87
2024/01/18 02:56:57;;;;;;;1.60;1.60;;;;;;;16.02;22.60;98230.53;7405426;19;20022;-88
2024/01/18 02:59:23;;;;;;;1.70;1.60;;;;;;;15.89;22.60;98230.63;7423111;19;20018;-86
2024/01/18 03:01:49;;;;;;;1.85;1.75;;;;;;;15.81;22.85;98227.00;7421335;19;20014;-89
2024/01/18 03:04:15;;;;;;;1.05;1.05;;;;;;;15.78;22.96;98237.28;7417147;19;20006;-87
2024/01/18 03:06:42;;;;;;;2.88;1.88;;;;;;;15.84;23.16;98234.31;7415146;19;20018;-87
2024/01/18 03:09:08;;;;;;;2.58;2.17;;;;;;;16.09;22.32;98243.84;7419556;19;20022;-87
2024/01/18 03:11:34;;;;;;;2.05;1.58;;;;;;;16.57;22.24;98242.25;7416653;19;20009;-87
2024/01/18 03:14:00;;;;;;;5.00;3.15;;;;;;;16.74;22.00;98242.50;7416140;19;20667;-87
2024/01/18 03:16:28;;;;;;;4.68;2.20;;;;;;;16.65;21.83;98255.03;7415667;19;20019;-87
2024/01/18 03:18:54;;;;;;;5.00;2.65;;;;;;;16.91;22.02;98253.25;7416864;19;20010;-87
2024/01/18 03:21:20;;;;;;;1.13;1.13;;;;;;;16.50;22.47;98259.84;7411392;19;20017;-88
2024/01/18 03:23:47;;;;;;;0.65;0.65;;;;;;;16.08;22.55;98253.59;7393200;19;20014;-88
2024/01/18 03:26:13;;;;;;;9.73;1.27;;;;;;;16.06;22.91;98256.19;7399569;19;20026;-87
2024/01/18 03:28:39;;;;;;;7.72;3.65;;;;;;;16.08;22.47;98259.19;7394091;19;20014;-88
2024/01/18 03:31:08;;;;;;;1.60;1.27;;;;;;;16.14;22.76;98262.59;7396012;19;20031;-88
2024/01/18 03:33:34;;;;;;;0.68;0.68;;;;;;;16.21;22.69;98259.09;7393442;19;20011;-88
2024/01/18 03:36:00;;;;;;;1.20;1.10;;;;;;;16.20;22.52;98259.66;7394621;19;20022;-88
2024/01/18 03:38:26;;;;;;;5.55;2.70;;;;;;;16.41;22.55;98269.53;7398118;19;20039;-88
2024/01/18 03:40:52;;;;;;;1.83;1.73;;;;;;;16.22;22.69;98274.63;7395121;19;20018;-88
2024/01/18 03:43:19;;;;;;;0.80;0.80;;;;;;;16.20;22.66;98273.69;7393638;19;20018;-88
2024/01/18 03:45:47;;;;;;;30.13;3.05;;;;;;;16.02;22.60;98289.50;7397095;19;20021;-88
2024/01/18 03:48:13;;;;;;;9.13;1.65;;;;;;;15.55;22.90;98291.72;7396086;19;20367;-89
2024/01/18 03:50:40;;;;;;;1.25;1.25;;;;;;;15.31;23.09;98301.16;7394235;19;20037;-88
2024/01/18 03:53:06;;;;;;;0.95;0.95;;;;;;;15.27;23.17;98295.16;7391827;19;20015;-88
2024/01/18 03:55:32;;;;;;;2.58;1.90;;;;;;;15.33;23.17;98295.78;7396255;19;20014;-88
2024/01/18 03:57:58;;;;;;;1.60;1.60;;;;;;;16.04;22.23;98298.13;7393686;19;20030;-88
2024/01/18 04:00:24;;;;;;;0.70;0.70;;;;;;;16.01;22.46;98307.63;7394487;19;20018;-88
2024/01/18 04:02:51;;;;;;;1.25;1.25;;;;;;;14.48;23.58;98311.41;7392216;19;20428;-88
2024/01/18 04:05:17;;;;;;;1.27;1.25;;;;;;;16.16;22.63;98309.78;7394535;19;20025;-88
2024/01/18 04:07:43;;;;;;;1.40;1.27;;;;;;;16.57;22.29;98310.47;7398157;19;20022;-88
2024/01/18 04:10:10;;;;;;;1.30;1.30;;;;;;;15.76;22.84;98312.13;7394024;19;20015;-88
2024/01/18 04:12:37;;;;;;;0.77;0.77;;;;;;;14.44;23.35;98319.38;7392585;19;20011;-88
2024/01/18 04:15:03;;;;;;;0.70;0.70;;;;;;;14.36;23.84;98315.69;7392789;19;20015;-88
2024/01/18 04:17:29;;;;;;;3.30;1.45;;;;;;;14.48;23.87;98308.59;7393803;19;20025;-88
2024/01/18 04:19:55;;;;;;;0.70;0.70;;;;;;;16.61;22.23;98322.09;7393616;19;20026;-88
2024/01/18 04:22:24;;;;;;;1.83;1.83;;;;;;;17.00;22.13;98335.03;7393787;19;20032;-88
2024/01/18 04:24:51;;;;;;;1.65;1.55;;;;;;;17.06;21.96;98337.69;7392792;19;20025;-88
2024/01/18 04:27:17;;;;;;;0.73;0.73;;;;;;;17.11;21.87;98334.69;7394785;19;20033;-87
2024/01/18 04:29:44;;;;;;;1.55;1.55;;;;;;;16.67;21.91;98342.34;7391569;19;20011;-88
2024/01/18 04:32:10;;;;;;;1.17;1.13;;;;;;;16.45;22.15;98331.72;7392744;19;20041;-87
2024/01/18 04:34:37;;;;;;;0.85;0.85;;;;;;;16.75;22.22;98348.03;7394290;19;20018;-88
2024/01/18 04:37:04;;;;;;;2.70;1.40;;;;;;;16.70;22.00;98351.03;7394314;19;20021;-87
2024/01/18 04:39:30;;;;;;;1.52;1.17;;;;;;;16.99;22.00;98353.22;7394683;19;20013;-88
2024/01/18 04:41:56;;;;;;;1.48;1.45;;;;;;;16.96;22.00;98362.00;7393355;19;20031;-88
2024/01/18 04:44:22;;;;;;;1.08;1.08;;;;;;;17.04;21.79;98363.56;7393008;19;20022;-88
2024/01/18 04:46:48;;;;;;;1.83;1.73;;;;;;;16.62;22.24;98354.53;7394152;19;20041;-88
2024/01/18 04:49:14;;;;;;;0.75;0.75;;;;;;;16.90;21.92;98362.16;7392952;19;20037;-88
2024/01/18 04:51:41;;;;;;;2.13;1.13;;;;;;;16.61;22.13;98367.06;7392394;19;20014;-88
2024/01/18 04:54:07;;;;;;;15.13;2.90;;;;;;;16.58;22.19;98368.19;7390836;19;20018;-88
2024/01/18 04:56:35;;;;;;;4.47;2.53;;;;;;;16.82;22.04;98364.19;7391795;19;20039;-88
2024/01/18 04:59:02;;;;;;;1.42;1.42;;;;;;;17.17;21.76;98371.13;7390600;19;20022;-88
2024/01/18 05:01:28;;;;;;;0.70;0.70;;;;;;;16.90;21.85;98364.22;7391170;19;20404;-88
2024/01/18 05:03:54;;;;;;;2.25;2.15;;;;;;;17.00;21.95;98368.78;7392086;19;20014;-88
2024/01/18 05:06:20;;;;;;;2.72;2.00;;;;;;;17.02;22.02;98376.66;7392876;19;20021;-88
2024/01/18 05:08:46;;;;;;;0.77;0.77;;;;;;;17.04;22.11;98380.44;7394124;19;20010;-88
2024/01/18 05:11:12;;;;;;;0.82;0.80;;;;;;;17.46;21.69;98372.50;7392792;19;20014;-88
2024/01/18 05:13:38;;;;;;;1.30;1.30;;;;;;;17.48;21.49;98383.97;7391379;19;20027;-88
2024/01/18 05:16:06;;;;;;;0.93;0.93;;;;;;;16.43;22.54;98384.91;7388940;19;20368;-88
2024/01/18 05:18:32;;;;;;;7.18;4.10;;;;;;;16.80;21.92;98371.69;7395801;19;20031;-88
2024/01/18 05:20:58;;;;;;;4.13;2.08;;;;;;;17.38;21.56;98385.81;7392256;19;20015;-88
2024/01/18 05:23:24;;;;;;;1.00;1.00;;;;;;;17.65;21.67;98389.13;7390354;19;20323;-87
2024/01/18 05:25:50;;;;;;;1.17;1.17;;;;;;;17.54;21.42;98393.03;7391625;19;20026;-88
2024/01/18 05:28:17;;;;;;;0.95;0.95;;;;;;;17.44;21.45;98389.97;7394666;19;20078;-88
2024/01/18 05:30:44;;;;;;;1.30;1.17;;;;;;;17.57;21.42;98391.91;7392028;19;20011;-88
2024/01/18 05:33:11;;;;;;;1.98;1.80;;;;;;;17.35;21.39;98387.69;7390650;19;20026;-88
2024/01/18 05:35:37;;;;;;;1.48;1.42;;;;;;;16.89;21.44;98390.84;7390787;19;20031;-88
2024/01/18 05:38:03;;;;;;;1.05;1.05;;;;;;;16.95;21.68;98411.88;7394223;19;20097;-88
2024/01/18 05:40:29;;;;;;;8.68;2.38;;;;;;;16.83;21.92;98409.94;7391672;19;20361;-88
2024/01/18 05:42:55;;;;;;;4.88;1.90;;;;;;;16.71;21.99;98415.13;7391913;19;20409;-88
2024/01/18 05:45:21;;;;;;;1.00;1.00;;;;;;;16.29;22.02;98414.41;7391013;19;20018;-88
2024/01/18 05:47:49;;;;;;;0.77;0.77;;;;;;;16.15;21.81;98410.16;7391554;19;20014;-88
2024/01/18 05:50:15;;;;;;;2.10;1.85;;;;;;;16.11;22.12;98423.81;7389320;19;20019;-89
2024/01/18 05:52:41;;;;;;;1.65;1.58;;;;;;;16.31;21.99;98427.88;7389412;19;20018;-89
2024/01/18 05:55:07;;;;;;;0.40;0.40;;;;;;;16.49;22.07;98424.09;7389290;19;20014;-89
2024/01/18 05:57:37;;;;;;;0.40;0.40;;;;;;;16.58;21.85;98430.03;7390898;19;20018;-88
2024/01/18 06:00:05;;;;;;;0.98;0.98;;;;;;;16.90;21.57;98438.09;7388873;19;20022;-88
2024/01/18 06:02:32;;;;;;;9.85;1.73;;;;;;;17.24;21.44;98426.63;7388277;19;20014;-87
2024/01/18 06:04:58;;;;;;;2.47;2.05;;;;;;;17.27;20.95;98436.78;7391003;19;20018;-88
2024/01/18 06:07:24;;;;;;;0.80;0.80;;;;;;;16.95;21.49;98430.81;7391778;19;20022;-88
2024/01/18 06:09:50;;;;;;;2.28;1.70;;;;;;;17.08;21.12;98439.13;7395633;19;20589;-88
2024/01/18 06:12:16;;;;;;;1.15;1.15;;;;;;;17.04;21.24;98431.06;7390103;19;20010;-88
2024/01/18 06:14:43;;;;;;;0.60;0.60;;;;;;;16.41;21.55;98443.72;7389834;19;20015;-88
2024/01/18 06:17:09;;;;;;;1.23;1.23;;;;;;;17.42;20.99;98445.31;7390571;19;20011;-90
2024/01/18 06:19:35;;;;;;;1.15;0.90;;;;;;;17.59;21.19;98462.47;7389106;19;20014;-91
2024/01/18 06:22:01;;;;;;;0.70;0.70;;;;;;;17.83;21.03;98461.22;7390182;19;20051;-88
2024/01/18 06:24:28;;;;;;;2.53;2.35;;;;;;;18.29;20.52;98462.06;7390486;19;20018;-89
2024/01/18 06:26:55;;;;;;;8.50;1.33;;;;;;;18.23;20.46;98467.91;7390004;19;20022;-89
2024/01/18 06:29:26;;;;;;;1.80;1.70;;;;;;;17.48;20.69;98479.66;7390255;19;20444;-88
2024/01/18 06:31:53;;;;;;;2.10;2.03;;;;;;;17.42;20.67;98487.53;7389287;19;20018;-88
2024/01/18 06:34:19;;;;;;;1.55;1.00;;;;;;;18.07;20.43;98486.09;7388749;19;20010;-87
2024/01/18 06:36:45;;;;;;;2.75;1.10;;;;;;;17.75;20.66;98486.56;7389675;19;20051;-89
2024/01/18 06:39:11;;;;;;;0.32;0.32;;;;;;;17.47;20.82;98492.25;7393158;19;20017;-88
2024/01/18 06:41:37;;;;;;;0.43;0.43;;;;;;;17.45;20.84;98506.13;7389030;19;20040;-89
2024/01/18 06:44:05;;;;;;;1.67;1.58;;;;;;;16.38;21.61;98506.63;7388903;19;20366;-88
2024/01/18 06:46:31;;;;;;;1.98;1.75;;;;;;;15.99;22.04;98523.66;7389099;19;20022;-88
2024/01/18 06:48:57;;;;;;;0.60;0.60;;;;;;;16.07;21.89;98532.91;7391819;19;20078;-88
2024/01/18 06:51:24;;;;;;;2.15;2.03;;;;;;;15.75;22.37;98533.09;7389074;19;20480;-88
2024/01/18 06:53:51;;;;;;;0.73;0.73;;;;;;;15.46;22.58;98553.88;7386676;19;20018;-88
2024/01/18 06:56:17;;;;;;;9.23;3.60;;;;;;;15.85;22.09;98555.88;7385908;19;20019;-89
2024/01/18 06:58:43;;;;;;;5.75;3.88;;;;;;;16.40;21.91;98553.84;7392654;19;20353;-88
2024/01/18 07:01:10;;;;;;;9.20;4.65;;;;;;;16.61;21.48;98557.47;7393796;19;20021;-88
2024/01/18 07:03:36;;;;;;;3.33;2.40;;;;;;;16.01;21.74;98562.41;7393054;19;20011;-88
2024/01/18 07:06:03;;;;;;;1.50;1.50;;;;;;;15.85;22.17;98567.09;7395242;19;20045;-87
2024/01/18 07:08:30;;;;;;;3.60;1.58;;;;;;;15.92;22.07;98566.44;7399499;19;20021;-88
2024/01/18 07:10:57;;;;;;;2.70;1.90;;;;;;;15.89;22.44;98568.28;7398495;19;20025;-88
2024/01/18 07:13:26;;;;;;;0.88;0.88;;;;;;;16.10;22.40;98582.38;7394066;19;20018;-88
2024/01/18 07:15:52;;;;;;;2.08;1.90;;;;;;;16.13;22.21;98598.16;7393651;19;20026;-89
2024/01/18 07:18:18;;;;;;;1.45;1.35;;;;;;;16.26;21.91;98600.16;7398422;19;20471;-91
2024/01/18 07:20:45;;;;;;;0.93;0.93;;;;;;;16.05;22.19;98600.09;7398582;19;20038;-91
2024/01/18 07:23:11;;;;;;;2.70;1.88;;;;;;;16.41;22.07;98601.09;7395431;19;20484;-92
2024/01/18 07:25:37;;;;;;;6.25;2.70;;;;;;;16.21;21.92;98596.19;7396203;19;20015;-90
2024/01/18 07:28:03;;;;;;;5.32;2.63;;;;;;;16.05;21.92;98593.75;7398113;19;20046;-90
2024/01/18 07:30:29;;;;;;;5.90;2.63;;;;;;;15.81;21.91;98600.34;7395872;19;20031;-88
2024/01/18 07:32:55;;;;;;;4.38;2.33;;;;;;;15.75;22.04;98619.38;7393770;19;20018;-90
2024/01/18 07:35:22;;;;;;;0.80;0.80;;;;;;;15.89;22.46;98623.69;7396509;19;20393;-92
2024/01/18 07:37:48;;;;;;;4.88;2.60;;;;;;;15.89;22.24;98632.09;7397467;19;20023;-89
2024/01/18 07:40:14;;;;;;;1.85;1.75;;;;;;;16.01;22.11;98630.56;7395636;19;20014;-90
2024/01/18 07:42:40;;;;;;;1.48;1.38;;;;;;;16.02;22.17;98636.94;7395227;19;20090;-90
2024/01/18 07:45:08;;;;;;;3.03;2.72;;;;;;;15.95;22.23;98627.13;7395230;19;20450;-91
2024/01/18 07:47:34;;;;;;;1.10;1.10;;;;;;;16.25;22.19;98633.13;7397270;19;20043;-91
2024/01/18 07:50:01;;;;;;;7.90;2.95;;;;;;;16.39;21.80;98640.22;7395151;19;20018;-86
2024/01/18 07:52:27;;;;;;;20.73;2.55;;;;;;;16.43;21.90;98654.69;7394406;19;20022;-92
2024/01/18 07:54:53;;;;;;;2.60;1.13;;;;;;;16.41;21.62;98648.09;7395141;19;20378;-88
2024/01/18 07:57:19;;;;;;;1.25;1.25;;;;;;;16.47;21.88;98660.72;7397845;19;20006;-91
2024/01/18 07:59:45;;;;;;;3.45;1.42;;;;;;;16.54;21.72;98673.38;7394513;19;20082;-84
2024/01/18 08:02:11;;;;;;;8.85;3.47;;;;;;;16.62;21.57;98677.03;7393893;19;20361;-82
2024/01/18 08:04:37;;;;;;;2.38;2.17;;;;;;;17.18;21.60;98682.09;7397864;19;20047;-82
2024/01/18 08:07:03;;;;;;;3.45;1.50;;;;;;;17.49;21.51;98683.84;7395354;19;20034;-81
2024/01/18 08:09:30;;;;;;;2.33;2.15;;;;;;;17.15;21.61;98688.81;7396457;19;20019;-82
2024/01/18 08:11:57;;;;;;;2.83;2.22;;;;;;;17.30;21.65;98683.31;7391310;19;20030;-82
2024/01/18 08:14:23;;;;;;;2.05;1.85;;;;;;;17.35;21.67;98699.28;7391944;19;20480;-82
2024/01/18 08:16:49;;;;;;;0.70;0.70;;;;;;;17.93;20.91;98699.56;7394015;19;20367;-80
2024/01/18 08:19:15;;;;;;;1.80;1.70;;;;;;;17.99;21.02;98702.25;7395415;19;20049;-79
2024/01/18 08:21:43;;;;;;;3.83;1.92;;;;;;;17.79;21.29;98706.63;7391967;19;20010;-79
2024/01/18 08:24:10;;;;;;;1.73;1.63;;;;;;;17.80;20.96;98719.38;7385401;19;20021;-79
2024/01/18 08:26:36;;;;;;;8.00;2.88;;;;;;;17.62;21.18;98714.00;7387204;19;20117;-79
2024/01/18 08:29:02;;;;;;;0.90;0.90;;;;;;;17.14;21.57;98715.44;7390063;19;20860;-81
2024/01/18 08:31:28;;;;;;;1.65;1.55;;;;;;;17.59;21.65;98727.13;7388998;19;20003;-79
2024/01/18 08:33:54;;;;;;;0.65;0.65;;;;;;;18.21;21.14;98729.03;7388581;19;20027;-79
2024/01/18 08:36:20;;;;;;;0.85;0.85;;;;;;;18.50;20.78;98728.47;7389310;19;20019;-78
2024/01/18 08:38:46;;;;;;;0.80;0.80;;;;;;;18.56;20.75;98737.50;7393338;19;20014;-78
2024/01/18 08:41:12;;;;;;;6.63;3.20;;;;;;;18.43;20.85;98743.25;7390855;19;20018;-78
2024/01/18 08:43:38;;;;;;;0.50;0.50;;;;;;;17.91;20.84;98735.25;7388172;19;20267;-78
2024/01/18 08:46:07;;;;;;;0.98;0.98;;;;;;;17.84;21.08;98736.72;7391963;19;20045;-79
2024/01/18 08:48:36;;;;;;;0.65;0.65;;;;;;;17.76;21.27;98727.44;7394492;19;20476;-79
2024/01/18 08:51:03;;;;;;;1.40;1.33;;;;;;;18.18;21.13;98737.31;7391523;19;20048;-78
2024/01/18 08:53:30;;;;;;;0.80;0.80;;;;;;;18.36;20.76;98743.22;7390196;19;20352;-78
2024/01/18 08:55:56;;;;;;;0.28;0.28;;;;;;;18.31;21.29;98749.75;7388896;19;20473;-78
2024/01/18 08:58:23;;;;;;;2.25;1.60;;;;;;;18.19;21.16;98752.16;7396131;19;20022;-78
2024/01/18 09:00:49;;;;;;;2.90;2.70;;;;;;;18.42;21.16;98749.44;7392219;19;20032;-79
2024/01/18 09:03:15;;;;;;;1.45;1.40;;;;;;;18.65;20.69;98758.78;7389828;19;20029;-78
2024/01/18 09:05:41;;;;;;;1.55;1.55;;;;;;;18.50;20.82;98753.06;7392069;19;20022;-79
2024/01/18 09:08:08;;;;;;;1.35;1.35;;;;;;;18.60;21.13;98748.44;7392402;19;20492;-78
2024/01/18 09:10:34;;;;;;;1.92;1.83;;;;;;;18.61;21.17;98758.41;7391690;19;20010;-79
2024/01/18 09:13:00;;;;;;;2.10;1.95;;;;;;;18.38;21.02;98768.78;7388864;19;20015;-78
2024/01/18 09:15:26;;;;;;;0.50;0.50;;;;;;;18.69;21.13;98776.13;7389176;19;20490;-79
2024/01/18 09:17:52;;;;;;;3.08;2.88;;;;;;;18.97;20.87;98781.69;7390844;19;20045;-79
2024/01/18 09:20:19;;;;;;;1.25;1.25;;;;;;;18.86;20.62;98798.94;7392067;19;20025;-81
2024/01/18 09:22:45;;;;;;;3.42;2.92;;;;;;;18.83;20.86;98805.69;7386945;19;20011;-78
2024/01/18 09:25:11;;;;;;;1.95;1.55;;;;;;;18.85;21.07;98809.47;7389461;19;20018;-78
2024/01/18 09:27:37;;;;;;;1.63;1.63;;;;;;;18.78;21.15;98815.06;7392239;19;20018;-78
2024/01/18 09:30:04;;;;;;;1.80;1.70;;;;;;;19.18;20.82;98809.78;7389868;19;20110;-78
2024/01/18 09:32:31;;;;;;;5.20;2.25;;;;;;;19.26;20.95;98833.13;7390199;19;20014;-78
2024/01/18 09:34:57;;;;;;;4.00;3.63;;;;;;;18.73;21.47;98832.94;7389532;19;20025;-80
2024/01/18 09:37:23;;;;;;;3.05;2.58;;;;;;;18.56;21.54;98832.66;7391933;19;20023;-79
2024/01/18 09:39:49;;;;;;;8.88;2.60;;;;;;;18.43;21.56;98841.91;7390445;19;20038;-79
2024/01/18 09:42:17;;;;;;;1.20;1.10;;;;;;;19.17;21.22;98847.78;7390180;19;20018;-79
2024/01/18 09:44:46;;;;;;;2.58;2.38;;;;;;;19.05;21.41;98850.19;7390166;19;20041;-79
2024/01/18 09:47:16;;;;;;;1.02;1.02;;;;;;;18.91;21.50;98857.25;7391386;19;20097;-82
2024/01/18 09:49:44;;;;;;;1.50;1.50;;;;;;;18.93;21.72;98863.09;7390803;19;20014;-79
2024/01/18 09:52:11;;;;;;;2.75;2.65;;;;;;;18.68;22.02;98862.03;7394791;19;20024;-80
2024/01/18 09:54:38;;;;;;;4.05;1.50;;;;;;;18.59;22.36;98876.63;7386198;19;20019;-79
2024/01/18 09:57:08;;;;;;;3.05;1.90;;;;;;;18.97;22.10;98883.28;7387298;19;20019;-79
2024/01/18 09:59:36;;;;;;;2.00;1.90;;;;;;;19.15;22.14;98882.22;7382985;19;20078;-79
2024/01/18 10:02:03;;;;;;;0.68;0.68;;;;;;;18.82;22.11;98894.44;7387910;19;20022;-79
2024/01/18 10:04:31;;;;;;;3.50;2.97;;;;;;;19.64;21.65;98893.34;7385107;19;20038;-79
2024/01/18 10:06:57;;;;;;;0.68;0.68;;;;;;;19.21;22.35;98905.38;7386642;19;20409;-79
2024/01/18 10:09:23;;;;;;;10.23;3.03;;;;;;;18.99;22.46;98913.75;7387673;19;20014;-80
2024/01/18 10:11:49;;;;;;;2.40;1.25;;;;;;;19.36;21.95;98919.56;7387368;19;20122;-79
2024/01/18 10:14:16;;;;;;;1.05;1.05;;;;;;;19.71;21.79;98925.75;7391570;19;20021;-80
2024/01/18 10:16:42;;;;;;;3.60;3.08;;;;;;;19.59;22.03;98928.91;7387664;19;20020;-80
2024/01/18 10:19:17;;;;;;;2.17;1.23;;;;;;;19.86;22.21;98932.16;7389639;19;20029;-80
2024/01/18 10:21:44;;;;;;;5.25;1.73;;;;;;;20.07;22.21;98932.03;7388460;19;20025;-79
2024/01/18 10:24:12;;;;;;;1.30;1.15;;;;;;;20.46;21.81;98925.84;7390064;19;20010;-79
2024/01/18 10:26:38;;;;;;;1.10;1.10;;;;;;;20.91;21.84;98937.13;7387846;19;20378;-79
2024/01/18 10:29:06;;;;;;;0.93;0.93;;;;;;;20.95;21.98;98940.31;7386954;19;20460;-79
2024/01/18 10:31:32;;;;;;;1.92;1.70;;;;;;;20.91;21.96;98942.00;7389242;19;20018;-83
2024/01/18 10:33:58;;;;;;;1.02;1.02;;;;;;;20.25;22.57;98950.72;7388634;19;20021;-79
2024/01/18 10:36:25;;;;;;;1.02;0.98;;;;;;;19.88;23.00;98962.69;7391013;19;20033;-79
2024/01/18 10:38:52;;;;;;;1.73;1.63;;;;;;;20.32;22.92;98961.28;7395409;19;20022;-79
2024/01/18 10:41:21;;;;;;;1.27;0.68;;;;;;;20.06;22.81;98970.06;7395424;19;20010;-86
2024/01/18 10:43:48;;;;;;;0.30;0.30;;;;;;;20.42;22.98;98970.72;7394119;19;20022;-80
2024/01/18 10:46:14;;;;;;;1.75;1.65;;;;;;;21.25;22.47;98984.03;7396750;19;20014;-80
2024/01/18 10:48:46;;;;;;;3.67;1.80;;;;;;;20.49;23.31;98984.09;7394576;19;20024;-80
2024/01/18 10:51:13;;;;;;;2.28;1.08;;;;;;;20.65;23.05;98982.78;7396793;19;20373;-80
2024/01/18 10:53:41;;;;;;;0.95;0.95;;;;;;;20.41;23.08;98980.53;7389999;19;20077;-82
2024/01/18 10:56:08;;;;;;;0.52;0.52;;;;;;;20.51;23.54;98987.13;7391821;19;20482;-80
2024/01/18 10:58:34;;;;;;;0.98;0.85;;;;;;;21.24;22.98;98991.06;7399391;19;20014;-81
2024/01/18 11:01:01;;;;;;;3.03;1.27;;;;;;;20.64;23.55;98998.25;7395029;19;20018;-81
2024/01/18 11:03:28;;;;;;;1.10;1.10;;;;;;;22.86;22.23;98995.47;7393188;19;20018;-81
2024/01/18 11:05:55;;;;;;;2.58;1.33;;;;;;;21.21;23.08;99000.69;7394100;19;20891;-81
2024/01/18 11:08:22;;;;;;;1.15;0.63;;;;;;;21.58;22.96;99002.66;7399933;19;20018;-79
2024/01/18 11:10:49;;;;;;;1.05;0.98;;;;;;;21.16;23.36;99001.66;7404255;19;20042;-85
2024/01/18 11:13:16;;;;;;;0.52;0.52;;;;;;;20.68;24.01;98995.06;7397581;19;20018;-81
2024/01/18 11:15:44;;;;;;;1.38;1.27;;;;;;;20.11;24.09;99005.91;7398926;19;20024;-80
2024/01/18 11:18:14;;;;;;;0.73;0.73;;;;;;;21.90;23.17;99005.56;7402749;19;20007;-79
2024/01/18 11:20:58;;;;;;;4.75;0.47;;;;;;;22.32;22.75;99006.47;7392007;19;20014;-80
2024/01/18 11:23:29;;;;;;;18.88;1.75;;;;;;;21.10;23.66;99013.16;7392358;19;20330;-81
2024/01/18 11:25:55;;;;;;;3.80;1.05;;;;;;;21.13;23.49;99015.63;7396287;19;20037;-82
2024/01/18 11:28:28;;;;;;;1.10;1.10;;;;;;;21.48;23.36;99021.59;7392669;19;20015;-80
2024/01/18 11:30:55;;;;;;;0.60;0.60;;;;;;;21.82;23.25;99019.00;7393168;19;20091;-80